Terminal Aerodrome Forecast
Issued by NWS

Home | Current Version | Previous Version | Text Only | Print | Product List | Glossary On
Versions: 1 2 3 4 5 6 7 8 9 10 11 12 13 14 15 16 17 18 19
000
FTUS44 KLZK 211124
TAFHRO
TAF
KHRO 211124Z 2112/2212 19008KT P6SM SCT250
     FM211400 18008KT P6SM BKN100 OVC250
     FM212100 16008KT P6SM VCTS BKN050CB OVC120 PROB30 2121/2203
      -TSRA BKN040CB
     FM220300 19004KT 4SM -RA BR BKN025 OVC040 PROB30 2203/2209 2SM
      TSRA BKN010 OVC025CB=

USA.gov is the U.S. government's official web portal to all federal, state and local government web resources and services.